Golden Gate — WDF7183 — position and weather

sailwx.info

Track history (hours):
 
Tides and Currents Weather Stations Pressure Air Temp Water Temp Dewpoint Dewpoint Depression Visibility Wind Speed Wind Dir Waves Ship Positions

Golden Gate

Owner: Golden Gate Bridge Highway and Transportation District, San Francisco, CA. More information available from US FCC via Universal Licensing System and Coast Guard Vessel Documentation Center.

Last reported at 2017-Oct-31 16:00 UTC. Time now 2017-Nov-20 04:16 UTC.
Position N 37°47' W 122°17'.
Warning: this ship's position is 19 days out of date.

Length 41 m; draft 3.8 m.

Type: Passenger vessel. MMSI: 366778450.

Date/timePositionNaut miles runAvg speedWind from/ knotsBaromVisibWave heightAir tempDewpointWater temp
2017-Oct-31 16:00N 37°47' W 122°17'0 0.1
2017-Oct-31 15:30N 37°47' W 122°17'0 0.0
2017-Oct-31 15:00N 37°47' W 122°17'0 0.0
2017-Oct-31 14:30N 37°47' W 122°17'3 5.4
2017-Oct-31 14:01N 37°48' W 122°21'1223.0
2017-Oct-31 13:30N 37°57' W 122°30'1 0.0
2017-Oct-31 00:55N 37°56' W 122°30'923.1
2017-Oct-31 00:30N 37°48' W 122°23'611.8
2017-Oct-31 00:01N 37°54' W 122°26'4 7.2
2017-Oct-30 23:30N 37°56' W 122°30'1020.0
2017-Oct-30 23:00N 37°48' W 122°24'611.7
2017-Oct-30 22:30N 37°53' W 122°26'510.0
2017-Oct-30 22:00N 37°57' W 122°31'0 0.0
2017-Oct-30 21:30N 37°57' W 122°31'0 0.0
2017-Oct-30 20:58N 37°57' W 122°31'0 0.0
2017-Oct-30 20:29N 37°57' W 122°31'0 0.0
2017-Oct-30 19:57N 37°57' W 122°31'0 0.0
2017-Oct-30 19:15N 37°57' W 122°31'0 0.1
2017-Oct-30 19:00N 37°57' W 122°31'2 4.0
2017-Oct-30 18:30N 37°56' W 122°28'2 4.0
2017-Oct-30 18:00N 37°57' W 122°31'0 0.1
2017-Oct-30 17:30N 37°57' W 122°31'0 0.7
2017-Oct-30 17:00N 37°57' W 122°30'1020.9
2017-Oct-30 16:30N 37°48' W 122°24'918.1
2017-Oct-30 16:00N 37°56' W 122°29'2 4.7
2017-Oct-30 15:30N 37°54' W 122°27'612.2
2017-Oct-30 15:01N 37°49' W 122°23'1017.8
2017-Oct-30 14:27N 37°57' W 122°30'  
2017-Oct-28 01:50N 37°57' W 122°30'2 7.2
2017-Oct-28 01:31N 37°56' W 122°28'611.1
2017-Oct-28 01:01N 37°50' W 122°25'3 5.3
2017-Oct-28 00:30N 37°48' W 122°23'510.5
2017-Oct-28 00:00N 37°51' W 122°29'0 0.0
2017-Oct-27 23:30N 37°51' W 122°29'0 0.9
2017-Oct-27 23:00N 37°51' W 122°28'3 6.0
2017-Oct-27 22:31N 37°54' W 122°27'4 8.5
2017-Oct-27 22:00N 37°57' W 122°30'0 0.0
2017-Oct-26 19:15N 37°57' W 122°31'0 0.3
2017-Oct-26 19:00N 37°57' W 122°30'0 0.0
2017-Oct-26 18:30N 37°57' W 122°30'1020.5
2017-Oct-26 18:01N 37°48' W 122°23'5 9.2
2017-Oct-26 17:30N 37°53' W 122°25'611.0
2017-Oct-26 17:00N 37°57' W 122°30'4 7.6
2017-Oct-26 16:30N 37°54' W 122°27'714.3
2017-Oct-26 16:00N 37°48' W 122°24'1019.2
2017-Oct-26 15:30N 37°56' W 122°30'3 6.1
2017-Oct-26 15:01N 37°55' W 122°27'714.0
2017-Oct-26 14:31N 37°48' W 122°23'1020.3
2017-Oct-26 14:00N 37°57' W 122°30'917.7
2017-Oct-26 13:30N 37°50' W 122°23'612.2
2017-Oct-26 13:01N 37°55' W 122°28'3 5.2
2017-Oct-26 12:28N 37°57' W 122°30'0 0.0
2017-Oct-26 05:01N 37°57' W 122°30'0 7.4
2017-Oct-26 05:00N 37°57' W 122°30'1020.5
2017-Oct-26 04:30N 37°48' W 122°24'1020.3
2017-Oct-26 04:01N 37°56' W 122°30'0 1.0
2017-Oct-26 03:30N 37°56' W 122°29'918.9
2017-Oct-26 03:00N 37°48' W 122°23'1020.3
2017-Oct-26 02:30N 37°57' W 122°30'0 0.3
2017-Oct-26 02:00N 37°57' W 122°30'1021.4
2017-Oct-26 01:30N 37°48' W 122°24'1020.4
2017-Oct-26 01:00N 37°57' W 122°30'1 1.5
2017-Oct-26 00:30N 37°56' W 122°29'1019.1
2017-Oct-26 00:00N 37°48' W 122°24'4 8.5
2017-Oct-25 23:31N 37°52' W 122°25'612.7
2017-Oct-25 23:00N 37°57' W 122°30'1021.2
2017-Oct-25 22:30N 37°48' W 122°24'1019.2
2017-Oct-25 22:00N 37°56' W 122°29'1 2.0
2017-Oct-25 21:30N 37°57' W 122°31'0 0.0
2017-Oct-25 21:00N 37°57' W 122°31'0 0.0
2017-Oct-25 20:30N 37°57' W 122°31'0 0.0
2017-Oct-25 20:00N 37°57' W 122°31'0 0.0
2017-Oct-25 19:08N 37°57' W 122°31'0 0.0
2017-Oct-25 18:55N 37°57' W 122°31'0 0.0
2017-Oct-25 18:29N 37°57' W 122°31'0 0.1
2017-Oct-25 18:00N 37°57' W 122°31'3 6.6
2017-Oct-25 17:30N 37°55' W 122°27'815.4
2017-Oct-25 17:00N 37°48' W 122°24'613.0
2017-Oct-25 16:30N 37°54' W 122°27'4 8.2
2017-Oct-25 16:00N 37°57' W 122°30'1020.9
2017-Oct-25 15:30N 37°48' W 122°24'918.8
2017-Oct-25 15:00N 37°56' W 122°29'1 2.8
2017-Oct-25 14:30N 37°55' W 122°28'815.4
2017-Oct-25 14:01N 37°49' W 122°23'1019.8
2017-Oct-25 13:30N 37°57' W 122°30'0 0.0
2017-Oct-25 02:47N 37°56' W 122°30'724.9
2017-Oct-25 02:31N 37°51' W 122°24'1 1.2
2017-Oct-25 02:01N 37°52' W 122°25'713.2
2017-Oct-25 01:30N 37°57' W 122°30'1021.1
2017-Oct-25 01:01N 37°48' W 122°24'5 9.3
2017-Oct-25 00:31N 37°52' W 122°25'612.1
2017-Oct-25 00:00N 37°57' W 122°30'1020.8
2017-Oct-24 23:30N 37°48' W 122°24'4 8.2
2017-Oct-24 23:01N 37°52' W 122°25'713.2
2017-Oct-24 22:30N 37°57' W 122°30'1020.9
2017-Oct-24 22:00N 37°48' W 122°24'715.0
2017-Oct-24 21:30N 37°55' W 122°27'3 6.6
2017-Oct-24 21:00N 37°57' W 122°31'0 0.0
2017-Oct-24 20:30N 37°57' W 122°31'0 0.0
2017-Oct-24 20:00N 37°57' W 122°31'0 0.0
2017-Oct-24 19:30N 37°57' W 122°31'0 0.0
2017-Oct-24 19:00N 37°57' W 122°31'0 0.0
2017-Oct-24 18:30N 37°57' W 122°31'0 0.0
2017-Oct-24 18:00N 37°57' W 122°31'0 0.0
2017-Oct-24 17:30N 37°57' W 122°31'0 0.0
2017-Oct-24 17:00N 37°57' W 122°31'3 5.3
2017-Oct-24 16:31N 37°55' W 122°28'816.5
2017-Oct-24 16:00N 37°48' W 122°24'1019.4
2017-Oct-24 15:30N 37°56' W 122°30'0 0.2
2017-Oct-24 15:00N 37°56' W 122°29'1019.2
2017-Oct-24 14:30N 37°48' W 122°24'1020.9
2017-Oct-24 14:00N 37°57' W 122°30'816.3
2017-Oct-24 13:31N 37°51' W 122°24'611.0
2017-Oct-24 13:01N 37°55' W 122°28'3 5.5
2017-Oct-24 12:30N 37°57' W 122°30'0 0.0
2017-Oct-24 05:10N 37°57' W 122°30'0 0.1
2017-Oct-24 05:00N 37°57' W 122°30'1021.1
2017-Oct-24 04:30N 37°48' W 122°24'1019.4
2017-Oct-24 04:00N 37°56' W 122°30'0 0.0
2017-Oct-24 03:30N 37°56' W 122°30'1019.3
2017-Oct-24 03:00N 37°48' W 122°24'1020.4
2017-Oct-24 02:30N 37°57' W 122°30'0 0.5
2017-Oct-24 02:00N 37°57' W 122°30'1020.8
2017-Oct-24 01:30N 37°48' W 122°24'4 7.6
2017-Oct-24 01:00N 37°51' W 122°25'713.5
2017-Oct-24 00:30N 37°57' W 122°30'1021.4
2017-Oct-24 00:00N 37°48' W 122°24'3 5.4
2017-Oct-23 23:31N 37°50' W 122°24'815.8
2017-Oct-23 23:00N 37°57' W 122°30'1021.0
2017-Oct-23 22:30N 37°48' W 122°24'1019.3
2017-Oct-23 22:00N 37°56' W 122°29'1 1.9
2017-Oct-23 21:30N 37°57' W 122°30'0 0.0
2017-Oct-23 21:00N 37°57' W 122°30'1019.6
2017-Oct-23 20:30N 37°49' W 122°23'2 4.4
2017-Oct-23 20:00N 37°51' W 122°24'814.8
2017-Oct-23 19:30N 37°57' W 122°30'1020.5
2017-Oct-23 19:01N 37°48' W 122°23'612.5
2017-Oct-23 18:31N 37°54' W 122°27'4 7.9
2017-Oct-23 18:00N 37°57' W 122°30'3 6.5
2017-Oct-23 17:31N 37°55' W 122°27'815.4
2017-Oct-23 17:00N 37°48' W 122°24'816.2
2017-Oct-23 16:31N 37°55' W 122°28'3 5.0
2017-Oct-23 16:00N 37°57' W 122°30'1020.6
2017-Oct-23 15:30N 37°48' W 122°24'1019.3
2017-Oct-23 15:01N 37°56' W 122°29'2 3.5
2017-Oct-23 14:30N 37°55' W 122°27'815.8
2017-Oct-23 14:01N 37°48' W 122°23'1020.0
2017-Oct-23 13:30N 37°57' W 122°30'0 0.0
2017-Oct-23 03:03N 37°57' W 122°30'0 0.0
2017-Oct-23 03:00N 37°57' W 122°30'1020.9
2017-Oct-23 02:30N 37°48' W 122°23'0 0.2
2017-Oct-23 02:00N 37°48' W 122°24'0 0.0
2017-Oct-23 01:30N 37°48' W 122°24'0 0.0
2017-Oct-23 01:00N 37°48' W 122°24'0 0.0
2017-Oct-23 00:30N 37°48' W 122°24'918.2
2017-Oct-23 00:01N 37°56' W 122°29'2 2.4
2017-Oct-22 23:21N 37°57' W 122°30'617.8
2017-Oct-22 23:00N 37°53' W 122°25'5 9.9
2017-Oct-22 22:30N 37°48' W 122°24'0 0.1
2017-Oct-22 22:00N 37°48' W 122°24'0 0.0
2017-Oct-22 21:30N 37°48' W 122°24'713.2
2017-Oct-22 21:00N 37°54' W 122°27'4 8.3
2017-Oct-22 20:30N 37°57' W 122°30'4 8.2
2017-Oct-22 20:01N 37°55' W 122°26'714.2
2017-Oct-22 19:30N 37°48' W 122°24'815.1
2017-Oct-22 19:00N 37°55' W 122°27'3 5.5
2017-Oct-22 18:26N 37°57' W 122°30'0 0.0
2017-Oct-22 03:17N 37°57' W 122°30'0 0.1
2017-Oct-22 03:00N 37°57' W 122°30'1021.0
2017-Oct-22 02:30N 37°48' W 122°24'0 0.1
2017-Oct-22 02:00N 37°48' W 122°24'0 0.0
2017-Oct-22 01:30N 37°48' W 122°24'0 0.0
2017-Oct-22 01:00N 37°48' W 122°24'0 0.0
2017-Oct-22 00:30N 37°48' W 122°24'917.5
2017-Oct-22 00:01N 37°56' W 122°28'2 4.2
2017-Oct-21 23:30N 37°57' W 122°31'713.6
2017-Oct-21 23:01N 37°52' W 122°24'4 8.5
2017-Oct-21 22:30N 37°48' W 122°24'0 0.1
2017-Oct-21 22:00N 37°48' W 122°24'0 0.0
2017-Oct-21 21:31N 37°48' W 122°24'612.6
2017-Oct-21 21:01N 37°54' W 122°26'4 8.7
2017-Oct-21 20:30N 37°57' W 122°31'4 7.6
2017-Oct-21 20:00N 37°55' W 122°26'714.9
2017-Oct-21 19:31N 37°48' W 122°24'  
Track history (hours):
 
Tides and Currents Weather Stations Pressure Air Temp Water Temp Dewpoint Dewpoint Depression Visibility Wind Speed Wind Dir Waves Ship Positions

Golden Gate

Owner: Golden Gate Bridge Highway and Transportation District, San Francisco, CA. More information available from US FCC via Universal Licensing System and Coast Guard Vessel Documentation Center.

Last reported at 2017-Oct-31 16:00 UTC. Time now 2017-Nov-20 04:16 UTC.
Position N 37°47' W 122°17'.
Warning: this ship's position is 19 days out of date.

Length 41 m; draft 3.8 m.

Type: Passenger vessel. MMSI: 366778450.

Date/timePositionNaut miles runAvg speedWind from/ knotsBaromVisibWave heightAir tempDewpointWater temp
2017-Oct-31 16:00N 37°47' W 122°17'0 0.1
2017-Oct-31 15:30N 37°47' W 122°17'0 0.0
2017-Oct-31 15:00N 37°47' W 122°17'0 0.0
2017-Oct-31 14:30N 37°47' W 122°17'3 5.4
2017-Oct-31 14:01N 37°48' W 122°21'1223.0
2017-Oct-31 13:30N 37°57' W 122°30'1 0.0
2017-Oct-31 00:55N 37°56' W 122°30'923.1
2017-Oct-31 00:30N 37°48' W 122°23'611.8
2017-Oct-31 00:01N 37°54' W 122°26'4 7.2
2017-Oct-30 23:30N 37°56' W 122°30'1020.0
2017-Oct-30 23:00N 37°48' W 122°24'611.7
2017-Oct-30 22:30N 37°53' W 122°26'510.0
2017-Oct-30 22:00N 37°57' W 122°31'0 0.0
2017-Oct-30 21:30N 37°57' W 122°31'0 0.0
2017-Oct-30 20:58N 37°57' W 122°31'0 0.0
2017-Oct-30 20:29N 37°57' W 122°31'0 0.0
2017-Oct-30 19:57N 37°57' W 122°31'0 0.0
2017-Oct-30 19:15N 37°57' W 122°31'0 0.1
2017-Oct-30 19:00N 37°57' W 122°31'2 4.0
2017-Oct-30 18:30N 37°56' W 122°28'2 4.0
2017-Oct-30 18:00N 37°57' W 122°31'0 0.1
2017-Oct-30 17:30N 37°57' W 122°31'0 0.7
2017-Oct-30 17:00N 37°57' W 122°30'1020.9
2017-Oct-30 16:30N 37°48' W 122°24'918.1
2017-Oct-30 16:00N 37°56' W 122°29'2 4.7
2017-Oct-30 15:30N 37°54' W 122°27'612.2
2017-Oct-30 15:01N 37°49' W 122°23'1017.8
2017-Oct-30 14:27N 37°57' W 122°30'  
2017-Oct-28 01:50N 37°57' W 122°30'2 7.2
2017-Oct-28 01:31N 37°56' W 122°28'611.1
2017-Oct-28 01:01N 37°50' W 122°25'3 5.3
2017-Oct-28 00:30N 37°48' W 122°23'510.5
2017-Oct-28 00:00N 37°51' W 122°29'0 0.0
2017-Oct-27 23:30N 37°51' W 122°29'0 0.9
2017-Oct-27 23:00N 37°51' W 122°28'3 6.0
2017-Oct-27 22:31N 37°54' W 122°27'4 8.5
2017-Oct-27 22:00N 37°57' W 122°30'0 0.0
2017-Oct-26 19:15N 37°57' W 122°31'0 0.3
2017-Oct-26 19:00N 37°57' W 122°30'0 0.0
2017-Oct-26 18:30N 37°57' W 122°30'1020.5
2017-Oct-26 18:01N 37°48' W 122°23'5 9.2
2017-Oct-26 17:30N 37°53' W 122°25'611.0
2017-Oct-26 17:00N 37°57' W 122°30'4 7.6
2017-Oct-26 16:30N 37°54' W 122°27'714.3
2017-Oct-26 16:00N 37°48' W 122°24'1019.2
2017-Oct-26 15:30N 37°56' W 122°30'3 6.1
2017-Oct-26 15:01N 37°55' W 122°27'714.0
2017-Oct-26 14:31N 37°48' W 122°23'1020.3
2017-Oct-26 14:00N 37°57' W 122°30'917.7
2017-Oct-26 13:30N 37°50' W 122°23'612.2
2017-Oct-26 13:01N 37°55' W 122°28'3 5.2
2017-Oct-26 12:28N 37°57' W 122°30'0 0.0
2017-Oct-26 05:01N 37°57' W 122°30'0 7.4
2017-Oct-26 05:00N 37°57' W 122°30'1020.5
2017-Oct-26 04:30N 37°48' W 122°24'1020.3
2017-Oct-26 04:01N 37°56' W 122°30'0 1.0
2017-Oct-26 03:30N 37°56' W 122°29'918.9
2017-Oct-26 03:00N 37°48' W 122°23'1020.3
2017-Oct-26 02:30N 37°57' W 122°30'0 0.3
2017-Oct-26 02:00N 37°57' W 122°30'1021.4
2017-Oct-26 01:30N 37°48' W 122°24'1020.4
2017-Oct-26 01:00N 37°57' W 122°30'1 1.5
2017-Oct-26 00:30N 37°56' W 122°29'1019.1
2017-Oct-26 00:00N 37°48' W 122°24'4 8.5
2017-Oct-25 23:31N 37°52' W 122°25'612.7
2017-Oct-25 23:00N 37°57' W 122°30'1021.2
2017-Oct-25 22:30N 37°48' W 122°24'1019.2
2017-Oct-25 22:00N 37°56' W 122°29'1 2.0
2017-Oct-25 21:30N 37°57' W 122°31'0 0.0
2017-Oct-25 21:00N 37°57' W 122°31'0 0.0
2017-Oct-25 20:30N 37°57' W 122°31'0 0.0
2017-Oct-25 20:00N 37°57' W 122°31'0 0.0
2017-Oct-25 19:08N 37°57' W 122°31'0 0.0
2017-Oct-25 18:55N 37°57' W 122°31'0 0.0
2017-Oct-25 18:29N 37°57' W 122°31'0 0.1
2017-Oct-25 18:00N 37°57' W 122°31'3 6.6
2017-Oct-25 17:30N 37°55' W 122°27'815.4
2017-Oct-25 17:00N 37°48' W 122°24'613.0
2017-Oct-25 16:30N 37°54' W 122°27'4 8.2
2017-Oct-25 16:00N 37°57' W 122°30'1020.9
2017-Oct-25 15:30N 37°48' W 122°24'918.8
2017-Oct-25 15:00N 37°56' W 122°29'1 2.8
2017-Oct-25 14:30N 37°55' W 122°28'815.4
2017-Oct-25 14:01N 37°49' W 122°23'1019.8
2017-Oct-25 13:30N 37°57' W 122°30'0 0.0
2017-Oct-25 02:47N 37°56' W 122°30'724.9
2017-Oct-25 02:31N 37°51' W 122°24'1 1.2
2017-Oct-25 02:01N 37°52' W 122°25'713.2
2017-Oct-25 01:30N 37°57' W 122°30'1021.1
2017-Oct-25 01:01N 37°48' W 122°24'5 9.3
2017-Oct-25 00:31N 37°52' W 122°25'612.1
2017-Oct-25 00:00N 37°57' W 122°30'1020.8
2017-Oct-24 23:30N 37°48' W 122°24'4 8.2
2017-Oct-24 23:01N 37°52' W 122°25'713.2
2017-Oct-24 22:30N 37°57' W 122°30'1020.9
2017-Oct-24 22:00N 37°48' W 122°24'715.0
2017-Oct-24 21:30N 37°55' W 122°27'3 6.6
2017-Oct-24 21:00N 37°57' W 122°31'0 0.0
2017-Oct-24 20:30N 37°57' W 122°31'0 0.0
2017-Oct-24 20:00N 37°57' W 122°31'0 0.0
2017-Oct-24 19:30N 37°57' W 122°31'0 0.0
2017-Oct-24 19:00N 37°57' W 122°31'0 0.0
2017-Oct-24 18:30N 37°57' W 122°31'0 0.0
2017-Oct-24 18:00N 37°57' W 122°31'0 0.0
2017-Oct-24 17:30N 37°57' W 122°31'0 0.0
2017-Oct-24 17:00N 37°57' W 122°31'3 5.3
2017-Oct-24 16:31N 37°55' W 122°28'816.5
2017-Oct-24 16:00N 37°48' W 122°24'1019.4
2017-Oct-24 15:30N 37°56' W 122°30'0 0.2
2017-Oct-24 15:00N 37°56' W 122°29'1019.2
2017-Oct-24 14:30N 37°48' W 122°24'1020.9
2017-Oct-24 14:00N 37°57' W 122°30'816.3
2017-Oct-24 13:31N 37°51' W 122°24'611.0
2017-Oct-24 13:01N 37°55' W 122°28'3 5.5
2017-Oct-24 12:30N 37°57' W 122°30'0 0.0
2017-Oct-24 05:10N 37°57' W 122°30'0 0.1
2017-Oct-24 05:00N 37°57' W 122°30'1021.1
2017-Oct-24 04:30N 37°48' W 122°24'1019.4
2017-Oct-24 04:00N 37°56' W 122°30'0 0.0
2017-Oct-24 03:30N 37°56' W 122°30'1019.3
2017-Oct-24 03:00N 37°48' W 122°24'1020.4
2017-Oct-24 02:30N 37°57' W 122°30'0 0.5
2017-Oct-24 02:00N 37°57' W 122°30'1020.8
2017-Oct-24 01:30N 37°48' W 122°24'4 7.6
2017-Oct-24 01:00N 37°51' W 122°25'713.5
2017-Oct-24 00:30N 37°57' W 122°30'1021.4
2017-Oct-24 00:00N 37°48' W 122°24'3 5.4
2017-Oct-23 23:31N 37°50' W 122°24'815.8
2017-Oct-23 23:00N 37°57' W 122°30'1021.0
2017-Oct-23 22:30N 37°48' W 122°24'1019.3
2017-Oct-23 22:00N 37°56' W 122°29'1 1.9
2017-Oct-23 21:30N 37°57' W 122°30'0 0.0
2017-Oct-23 21:00N 37°57' W 122°30'1019.6
2017-Oct-23 20:30N 37°49' W 122°23'2 4.4
2017-Oct-23 20:00N 37°51' W 122°24'814.8
2017-Oct-23 19:30N 37°57' W 122°30'1020.5
2017-Oct-23 19:01N 37°48' W 122°23'612.5
2017-Oct-23 18:31N 37°54' W 122°27'4 7.9
2017-Oct-23 18:00N 37°57' W 122°30'3 6.5
2017-Oct-23 17:31N 37°55' W 122°27'815.4
2017-Oct-23 17:00N 37°48' W 122°24'816.2
2017-Oct-23 16:31N 37°55' W 122°28'3 5.0
2017-Oct-23 16:00N 37°57' W 122°30'1020.6
2017-Oct-23 15:30N 37°48' W 122°24'1019.3
2017-Oct-23 15:01N 37°56' W 122°29'2 3.5
2017-Oct-23 14:30N 37°55' W 122°27'815.8
2017-Oct-23 14:01N 37°48' W 122°23'1020.0
2017-Oct-23 13:30N 37°57' W 122°30'0 0.0
2017-Oct-23 03:03N 37°57' W 122°30'0 0.0
2017-Oct-23 03:00N 37°57' W 122°30'1020.9
2017-Oct-23 02:30N 37°48' W 122°23'0 0.2
2017-Oct-23 02:00N 37°48' W 122°24'0 0.0
2017-Oct-23 01:30N 37°48' W 122°24'0 0.0
2017-Oct-23 01:00N 37°48' W 122°24'0 0.0
2017-Oct-23 00:30N 37°48' W 122°24'918.2
2017-Oct-23 00:01N 37°56' W 122°29'2 2.4
2017-Oct-22 23:21N 37°57' W 122°30'617.8
2017-Oct-22 23:00N 37°53' W 122°25'5 9.9
2017-Oct-22 22:30N 37°48' W 122°24'0 0.1
2017-Oct-22 22:00N 37°48' W 122°24'0 0.0
2017-Oct-22 21:30N 37°48' W 122°24'713.2
2017-Oct-22 21:00N 37°54' W 122°27'4 8.3
2017-Oct-22 20:30N 37°57' W 122°30'4 8.2
2017-Oct-22 20:01N 37°55' W 122°26'714.2
2017-Oct-22 19:30N 37°48' W 122°24'815.1
2017-Oct-22 19:00N 37°55' W 122°27'3 5.5
2017-Oct-22 18:26N 37°57' W 122°30'0 0.0
2017-Oct-22 03:17N 37°57' W 122°30'0 0.1
2017-Oct-22 03:00N 37°57' W 122°30'1021.0
2017-Oct-22 02:30N 37°48' W 122°24'0 0.1
2017-Oct-22 02:00N 37°48' W 122°24'0 0.0
2017-Oct-22 01:30N 37°48' W 122°24'0 0.0
2017-Oct-22 01:00N 37°48' W 122°24'0 0.0
2017-Oct-22 00:30N 37°48' W 122°24'917.5
2017-Oct-22 00:01N 37°56' W 122°28'2 4.2
2017-Oct-21 23:30N 37°57' W 122°31'713.6
2017-Oct-21 23:01N 37°52' W 122°24'4 8.5
2017-Oct-21 22:30N 37°48' W 122°24'0 0.1
2017-Oct-21 22:00N 37°48' W 122°24'0 0.0
2017-Oct-21 21:31N 37°48' W 122°24'612.6
2017-Oct-21 21:01N 37°54' W 122°26'4 8.7
2017-Oct-21 20:30N 37°57' W 122°31'4 7.6
2017-Oct-21 20:00N 37°55' W 122°26'714.9
2017-Oct-21 19:31N 37°48' W 122°24'  

Dump ship's entire track history